createdAt,value
2023-03-12T00:04:36.918Z,-0.34
2023-03-12T00:09:41.063Z,-0.42
2023-03-12T00:14:45.215Z,-0.55
2023-03-12T00:19:49.409Z,-0.53
2023-03-12T00:24:53.574Z,-0.55
2023-03-12T00:29:57.709Z,-0.59
2023-03-12T00:35:01.905Z,-0.63
2023-03-12T00:40:06.035Z,-0.62
2023-03-12T00:45:10.207Z,-0.56
2023-03-12T00:50:14.399Z,-0.43
2023-03-12T00:55:18.647Z,-0.31
2023-03-12T01:00:22.703Z,-0.14
2023-03-12T01:05:26.874Z,-0.02
2023-03-12T01:10:31.030Z,0.19
2023-03-12T01:15:35.225Z,0.29
2023-03-12T01:20:39.366Z,0.43
2023-03-12T01:25:43.560Z,0.42
2023-03-12T01:30:45.828Z,0.48
2023-03-12T01:35:50.110Z,0.50
2023-03-12T01:40:52.252Z,0.57
2023-03-12T01:45:56.521Z,0.58
2023-03-12T01:51:00.603Z,0.66
2023-03-12T01:56:04.741Z,0.66
2023-03-12T02:01:08.958Z,0.76
2023-03-12T02:06:13.077Z,0.75
2023-03-12T02:11:17.240Z,0.82
2023-03-12T02:16:21.512Z,0.87
2023-03-12T02:21:25.582Z,0.87
2023-03-12T02:26:29.778Z,0.89
2023-03-12T02:31:33.936Z,0.83
2023-03-12T02:36:38.088Z,0.87
2023-03-12T02:41:42.224Z,0.99
2023-03-12T02:46:46.440Z,1.00
2023-03-12T02:51:50.582Z,1.03
2023-03-12T02:56:54.729Z,1.04
2023-03-12T03:01:58.906Z,1.06
2023-03-12T03:07:03.091Z,1.08
2023-03-12T03:12:07.221Z,1.12
2023-03-12T03:17:11.398Z,1.18
2023-03-12T03:22:15.572Z,1.22
2023-03-12T03:27:17.848Z,1.12
2023-03-12T03:32:22.078Z,1.04
2023-03-12T03:37:24.298Z,1.04
2023-03-12T03:47:32.587Z,1.03
2023-03-12T03:52:36.784Z,1.08
2023-03-12T03:57:40.944Z,1.27
2023-03-12T04:02:45.087Z,1.28
2023-03-12T04:07:49.257Z,1.37
2023-03-12T04:12:53.437Z,1.46
2023-03-12T04:17:57.628Z,1.51
2023-03-12T04:23:01.789Z,1.54
2023-03-12T04:28:05.937Z,1.59
2023-03-12T04:33:10.125Z,1.60
2023-03-12T04:38:14.266Z,1.70
2023-03-12T04:43:18.456Z,1.80
2023-03-12T04:48:22.567Z,1.92
2023-03-12T04:53:26.860Z,1.93
2023-03-12T04:58:30.895Z,1.92
2023-03-12T05:03:35.207Z,1.94
2023-03-12T05:08:39.272Z,1.96
2023-03-12T05:13:43.410Z,1.97
2023-03-12T05:18:47.570Z,1.94
2023-03-12T05:23:51.737Z,1.89
2023-03-12T05:28:53.997Z,1.87
2023-03-12T05:33:58.177Z,1.94
2023-03-12T05:39:02.363Z,1.96
2023-03-12T05:44:04.609Z,1.97
2023-03-12T05:49:08.803Z,1.98
2023-03-12T05:54:12.940Z,2.01
2023-03-12T05:59:17.104Z,1.99
2023-03-12T06:04:21.292Z,2.01
2023-03-12T06:09:25.444Z,2.01
2023-03-12T06:14:29.613Z,2.04
2023-03-12T06:19:33.750Z,2.04
2023-03-12T06:24:37.936Z,2.03
2023-03-12T06:29:42.105Z,2.01
2023-03-12T06:34:46.280Z,1.93
2023-03-12T06:39:50.425Z,2.03
2023-03-12T06:44:54.627Z,2.11
2023-03-12T06:49:58.755Z,2.11
2023-03-12T06:55:02.929Z,2.13
2023-03-12T07:00:07.083Z,2.16
2023-03-12T07:05:11.288Z,2.21
2023-03-12T07:10:15.451Z,2.24
2023-03-12T07:15:19.803Z,2.24
2023-03-12T07:20:23.764Z,2.29
2023-03-12T07:25:27.940Z,2.32
2023-03-12T07:30:30.378Z,2.33
2023-03-12T07:35:34.489Z,2.31
2023-03-12T07:40:36.621Z,2.34
2023-03-12T07:45:40.824Z,2.35
2023-03-12T07:50:44.956Z,2.40
2023-03-12T07:55:49.327Z,2.43
2023-03-12T08:00:53.307Z,2.53
2023-03-12T08:05:57.548Z,2.63
2023-03-12T08:11:01.639Z,2.68
2023-03-12T08:16:08.221Z,2.74
2023-03-12T08:21:09.935Z,2.80
2023-03-12T08:26:14.087Z,2.93
2023-03-12T08:31:18.368Z,3.04
2023-03-12T08:36:22.397Z,3.10
2023-03-12T08:41:24.748Z,3.20
2023-03-12T08:46:28.876Z,3.36
2023-03-12T08:51:33.023Z,3.53
2023-03-12T08:56:37.225Z,3.58
2023-03-12T09:01:43.557Z,3.70
2023-03-12T09:06:45.529Z,3.80
2023-03-12T09:11:49.730Z,3.93
2023-03-12T09:16:53.892Z,4.03
2023-03-12T09:21:58.028Z,4.20
2023-03-12T09:27:00.303Z,4.30
2023-03-12T09:32:05.990Z,4.26
2023-03-12T09:37:06.729Z,4.25
2023-03-12T09:42:10.866Z,4.31
2023-03-12T09:47:15.049Z,4.35
2023-03-12T09:52:19.206Z,4.37
2023-03-12T09:57:23.405Z,4.40
2023-03-12T10:02:27.562Z,4.43
2023-03-12T10:07:31.700Z,4.47
2023-03-12T10:12:35.895Z,4.56
2023-03-12T10:17:40.138Z,4.63
2023-03-12T10:22:44.211Z,4.73
2023-03-12T10:27:48.387Z,4.86
2023-03-12T10:32:52.550Z,4.94
2023-03-12T10:37:56.680Z,5.01
2023-03-12T10:43:00.866Z,5.05
2023-03-12T10:48:04.989Z,5.10
2023-03-12T10:53:09.169Z,5.03
2023-03-12T10:58:13.327Z,5.12
2023-03-12T11:03:17.513Z,5.25
2023-03-12T11:08:21.638Z,5.51
2023-03-12T11:13:25.831Z,5.73
2023-03-12T11:18:30.004Z,5.79
2023-03-12T11:23:32.278Z,5.81
2023-03-12T11:28:36.498Z,5.82
2023-03-12T11:33:38.680Z,5.94
2023-03-12T11:38:42.867Z,6.04
2023-03-12T11:43:47.038Z,6.09
2023-03-12T11:48:51.225Z,6.21
2023-03-12T11:53:55.345Z,6.39
2023-03-12T11:58:59.527Z,6.48
2023-03-12T12:04:03.688Z,6.74
2023-03-12T12:09:07.843Z,7.08
2023-03-12T12:14:12.025Z,7.14
2023-03-12T12:19:16.185Z,7.29
2023-03-12T12:24:20.344Z,7.42
2023-03-12T12:29:24.500Z,7.54
2023-03-12T12:34:28.625Z,7.64
2023-03-12T12:39:32.828Z,7.68
2023-03-12T12:44:36.999Z,7.69
2023-03-12T12:49:41.132Z,7.75
2023-03-12T12:54:45.513Z,7.79
2023-03-12T12:59:49.441Z,7.85
2023-03-12T13:04:55.713Z,7.81
2023-03-12T13:09:57.762Z,7.75
2023-03-12T13:15:01.914Z,7.83
2023-03-12T13:20:04.222Z,8.10
2023-03-12T13:25:08.392Z,8.34
2023-03-12T13:30:10.642Z,8.61
2023-03-12T13:35:14.837Z,8.81
2023-03-12T13:40:18.978Z,9.16
2023-03-12T13:45:23.181Z,9.46
2023-03-12T13:50:27.297Z,9.65
2023-03-12T13:55:31.462Z,9.81
2023-03-12T14:00:35.656Z,9.79
2023-03-12T14:05:39.810Z,9.78
2023-03-12T14:10:43.919Z,9.63
2023-03-12T14:15:48.193Z,9.60
2023-03-12T14:20:52.292Z,9.49
2023-03-12T14:25:56.464Z,9.49
2023-03-12T14:31:00.644Z,9.52
2023-03-12T14:36:04.836Z,9.58
2023-03-12T14:41:08.947Z,9.62
2023-03-12T14:46:13.104Z,9.69
2023-03-12T14:51:17.298Z,9.77
2023-03-12T14:56:21.388Z,9.80
2023-03-12T15:01:25.688Z,9.90
2023-03-12T15:06:29.708Z,9.95
2023-03-12T15:11:33.888Z,9.98
2023-03-12T15:16:36.219Z,10.04
2023-03-12T15:21:40.313Z,10.05
2023-03-12T15:26:42.599Z,10.05
2023-03-12T15:31:46.846Z,10.01
2023-03-12T15:36:50.926Z,10.06
2023-03-12T15:41:55.134Z,10.03
2023-03-12T15:47:01.407Z,10.08
2023-03-12T15:52:03.404Z,10.13
2023-03-12T15:57:07.543Z,10.13
2023-03-12T16:02:11.806Z,10.08
2023-03-12T16:12:20.043Z,10.15
2023-03-12T16:17:24.213Z,10.17
2023-03-12T16:22:28.352Z,10.20
2023-03-12T16:27:33.230Z,10.21
2023-03-12T16:32:36.758Z,10.21
2023-03-12T16:37:40.841Z,10.18
2023-03-12T16:42:44.985Z,10.19
2023-03-12T16:47:49.145Z,10.10
2023-03-12T16:52:53.352Z,10.13
2023-03-12T16:57:57.858Z,10.08
2023-03-12T17:03:01.995Z,10.12
2023-03-12T17:08:05.824Z,10.04
2023-03-12T17:13:10.249Z,9.98
2023-03-12T17:18:12.241Z,9.93
2023-03-12T17:23:16.397Z,9.97
2023-03-12T17:28:18.649Z,9.89
2023-03-12T17:33:22.863Z,9.90
2023-03-12T17:38:26.973Z,9.90
2023-03-12T17:43:31.147Z,9.89
2023-03-12T17:48:35.326Z,9.88
2023-03-12T17:53:39.548Z,9.85
2023-03-12T17:58:43.641Z,9.68
2023-03-12T18:03:47.888Z,9.66
2023-03-12T18:08:52.085Z,9.67
2023-03-12T18:13:56.110Z,9.67
2023-03-12T18:19:00.322Z,9.66
2023-03-12T18:24:13.485Z,9.69
2023-03-12T18:29:08.628Z,9.68
2023-03-12T18:34:12.747Z,9.68
2023-03-12T18:39:16.958Z,9.71
2023-03-12T18:44:21.104Z,9.69
2023-03-12T18:49:25.306Z,9.64
2023-03-12T18:54:29.412Z,9.68
2023-03-12T18:59:33.565Z,9.68
2023-03-12T19:04:37.705Z,9.64
2023-03-12T19:09:41.910Z,9.66
2023-03-12T19:14:44.182Z,9.70
2023-03-12T19:19:48.297Z,9.71
2023-03-12T19:24:50.624Z,9.75
2023-03-12T19:29:54.784Z,9.77
2023-03-12T19:34:58.928Z,9.78
2023-03-12T19:40:03.119Z,9.77
2023-03-12T19:45:07.298Z,9.78
2023-03-12T19:50:11.393Z,9.79
2023-03-12T19:55:16.012Z,9.88
2023-03-12T20:00:19.719Z,9.92
2023-03-12T20:05:23.901Z,9.89
2023-03-12T20:10:28.073Z,9.83
2023-03-12T20:15:32.206Z,9.89
2023-03-12T20:20:36.340Z,9.85
2023-03-12T20:25:40.537Z,9.80
2023-03-12T20:30:44.679Z,9.90
2023-03-12T20:35:50.436Z,9.86
2023-03-12T20:40:53.007Z,9.75
2023-03-12T20:45:57.229Z,9.75
2023-03-12T20:51:01.351Z,9.77
2023-03-12T20:56:07.010Z,9.70
2023-03-12T21:01:09.786Z,9.75
2023-03-12T21:06:13.815Z,9.69
2023-03-12T21:11:16.075Z,9.69
2023-03-12T21:16:20.405Z,9.73
2023-03-12T21:21:22.530Z,9.76
2023-03-12T21:26:26.709Z,9.76
2023-03-12T21:31:30.841Z,9.81
2023-03-12T21:36:35.016Z,9.76
2023-03-12T21:41:39.186Z,9.72
2023-03-12T21:46:43.399Z,9.71
2023-03-12T21:51:47.549Z,9.70
2023-03-12T21:56:51.669Z,9.62
2023-03-12T22:01:55.864Z,9.63
2023-03-12T22:07:00.016Z,9.67
2023-03-12T22:12:04.140Z,9.64
2023-03-12T22:17:08.309Z,9.58
2023-03-12T22:22:12.446Z,9.59
2023-03-12T22:27:16.658Z,9.59
2023-03-12T22:32:20.889Z,9.61
2023-03-12T22:37:24.960Z,9.65
2023-03-12T22:42:29.141Z,9.65
2023-03-12T22:47:33.281Z,9.63
2023-03-12T22:52:37.415Z,9.64
2023-03-12T22:57:41.623Z,9.64
2023-03-12T23:02:45.783Z,9.65
2023-03-12T23:07:48.035Z,9.64
2023-03-12T23:12:52.207Z,9.67
2023-03-12T23:17:54.457Z,9.61
2023-03-12T23:22:58.601Z,9.70
2023-03-12T23:28:02.791Z,9.69
2023-03-12T23:33:06.951Z,9.70
2023-03-12T23:38:11.118Z,9.71
2023-03-12T23:43:15.261Z,9.75
2023-03-12T23:48:19.458Z,9.73
2023-03-12T23:53:23.589Z,9.74
2023-03-12T23:58:27.769Z,9.76
